Página principal
METAR-TAF:

METAR-TAF

Aeroportos :

Aeroporto Internacional de Halifax

Halifax, Nova Escócia, Canadá

latitude: 44-53N, longitude: 063-30W, altura: 145 m

Observação actual do tempo

O boletim foi feito há 1 hora e 10 minutos, às 04:00 UTC
Vento 7 kt de sudoeste
Temperatura 0°C
Humidade 74%
Pressão 1021 hPa
Visibilidade: 24.1 km
Nuvens fragmentadasa uma altura de 5500 ft

METAR: CYHZ 230400Z 22007KT 15SM BKN055 00/M04 A3015 RMK SC5 SLP216

Hora: 02:10 (05:10 UTC)

Previsão

O boletim foi feito há 2 horas e 32 minutos, às 02:38 UTC
Previsão válida de 23 às 03 UTC a 23 às 24 UTC
Vento 10 kt de oes-sudoeste
Visibilidade: 10 km
Poucas nuvensa uma altura de 5000 ft
Tornando-se
de 23 às 20 UTC a 23 às 22 UTC
Vento 10 kt de sudeste

TAF: CYHZ 230238Z 2303/2324 25010KT P6SM FEW050 BECMG 2320/2322 13010KT RMK NXT FCST BY 230600Z

Observações e previsões do tempo de mais de 4000 aeroportos (mensagens METAR e TAF).

As estações disponíveis são os pontos amarelos e vermelhos sobre o mapa.

Mova o rato sobre o mapa para ver o nome da estação.

Depois clique no ponto para visualizar as observações e previsões meteorológicas.

Para alterar o mapa : clique nos botões verdes com uma cruz preta para aumentar o zoom; no botão verde com uma pitada de zoom; ou nas setas verdes para mapas adjacentes.


METAR-TAF: